createdAt,value
2018-08-04T00:01:33.939Z,100318.16
2018-08-04T00:04:02.344Z,100317.41
2018-08-04T00:06:33.469Z,100315.56
2018-08-04T00:09:01.909Z,100307.78
2018-08-04T00:11:30.395Z,100302.76
2018-08-04T00:13:59.272Z,100298.42
2018-08-04T00:16:27.728Z,100294.24
2018-08-04T00:18:56.191Z,100296.30
2018-08-04T00:21:24.612Z,100292.88
2018-08-04T00:23:53.502Z,100298.05
2018-08-04T00:26:22.038Z,100297.68
2018-08-04T00:28:50.759Z,100299.03
2018-08-04T00:31:19.203Z,100302.57
2018-08-04T00:33:47.626Z,100302.16
2018-08-04T00:36:16.451Z,100304.38
2018-08-04T00:38:44.882Z,100306.91
2018-08-04T00:41:13.366Z,100304.23
2018-08-04T00:43:42.023Z,100306.30
2018-08-04T00:46:10.431Z,100300.67
2018-08-04T00:48:38.831Z,100303.26
2018-08-04T00:51:07.279Z,100304.86
2018-08-04T00:53:35.910Z,100293.25
2018-08-04T00:56:04.519Z,100295.88
2018-08-04T00:58:32.968Z,100297.36
2018-08-04T01:01:01.342Z,100290.39
2018-08-04T01:03:29.773Z,100296.81
2018-08-04T01:05:58.264Z,100296.49
2018-08-04T01:08:26.715Z,100295.25
2018-08-04T01:10:55.431Z,100293.19
2018-08-04T01:13:23.971Z,100299.91
2018-08-04T01:15:52.375Z,100297.20
2018-08-04T01:18:20.887Z,100293.89
2018-08-04T01:20:49.410Z,100299.20
2018-08-04T01:23:17.847Z,100301.75
2018-08-04T01:25:46.270Z,100298.02
2018-08-04T01:28:14.750Z,100291.87
2018-08-04T01:30:43.387Z,100296.10
2018-08-04T01:33:11.827Z,100299.30
2018-08-04T01:35:40.741Z,100301.37
2018-08-04T01:38:09.263Z,100297.73
2018-08-04T01:40:37.714Z,100299.38
2018-08-04T01:43:06.629Z,100296.59
2018-08-04T01:45:35.115Z,100291.66
2018-08-04T01:48:03.547Z,100291.80
2018-08-04T01:50:31.975Z,100294.36
2018-08-04T01:53:00.415Z,100290.88
2018-08-04T01:55:28.816Z,100287.87
2018-08-04T01:57:57.334Z,100286.47
2018-08-04T02:00:25.775Z,100285.26
2018-08-04T02:02:54.192Z,100283.78
2018-08-04T02:05:22.620Z,100282.41
2018-08-04T02:07:51.055Z,100288.20
2018-08-04T02:10:19.570Z,100288.22
2018-08-04T02:12:48.072Z,100285.98
2018-08-04T02:15:16.427Z,100282.02
2018-08-04T02:17:44.835Z,100284.52
2018-08-04T02:20:13.211Z,100279.25
2018-08-04T02:22:41.748Z,100282.09
2018-08-04T02:25:10.151Z,100278.13
2018-08-04T02:27:38.555Z,100278.20
2018-08-04T02:30:07.007Z,100275.13
2018-08-04T02:32:35.415Z,100273.90
2018-08-04T02:35:04.259Z,100275.91
2018-08-04T02:37:32.656Z,100275.25
2018-08-04T02:40:01.083Z,100278.40
2018-08-04T02:42:29.745Z,100276.71
2018-08-04T02:44:58.221Z,100276.59
2018-08-04T02:47:26.615Z,100271.00
2018-08-04T02:49:55.151Z,100275.25
2018-08-04T02:52:23.663Z,100272.77
2018-08-04T02:54:52.346Z,100277.57
2018-08-04T02:57:21.242Z,100273.63
2018-08-04T02:59:49.635Z,100274.37
2018-08-04T03:02:18.100Z,100270.78
2018-08-04T03:04:46.560Z,100264.89
2018-08-04T03:07:14.979Z,100271.98
2018-08-04T03:09:43.379Z,100271.05
2018-08-04T03:12:12.103Z,100273.48
2018-08-04T03:14:40.503Z,100280.16
2018-08-04T03:17:08.924Z,100275.95
2018-08-04T03:19:37.778Z,100277.00
2018-08-04T03:22:06.795Z,100279.41
2018-08-04T03:24:35.275Z,100279.59
2018-08-04T03:27:03.863Z,100276.89
2018-08-04T03:29:32.271Z,100285.27
2018-08-04T03:32:00.776Z,100284.78
2018-08-04T03:34:29.510Z,100282.75
2018-08-04T03:36:57.982Z,100277.09
2018-08-04T03:39:26.397Z,100281.33
2018-08-04T03:41:55.050Z,100285.53
2018-08-04T03:44:23.470Z,100283.31
2018-08-04T03:46:51.910Z,100284.06
2018-08-04T03:49:20.451Z,100287.78
2018-08-04T03:51:48.995Z,100284.88
2018-08-04T03:54:17.400Z,100282.34
2018-08-04T03:56:45.866Z,100285.62
2018-08-04T03:59:14.263Z,100287.13
2018-08-04T04:01:42.707Z,100287.47
2018-08-04T04:04:11.206Z,100285.84
2018-08-04T04:06:39.715Z,100283.08
2018-08-04T04:09:09.764Z,100286.55
2018-08-04T04:11:38.352Z,100283.95
2018-08-04T04:14:06.948Z,100289.08
2018-08-04T04:16:35.665Z,100291.47
2018-08-04T04:19:04.420Z,100302.27
2018-08-04T04:21:32.933Z,100297.67
2018-08-04T04:24:01.536Z,100297.19
2018-08-04T04:26:30.183Z,100300.59
2018-08-04T04:28:58.602Z,100305.13
2018-08-04T04:31:27.028Z,100303.52
2018-08-04T04:33:56.139Z,100304.84
2018-08-04T04:36:24.614Z,100306.80
2018-08-04T04:38:53.195Z,100305.91
2018-08-04T04:41:21.666Z,100314.69
2018-08-04T04:43:50.024Z,100307.44
2018-08-04T04:46:18.618Z,100318.31
2018-08-04T04:48:47.471Z,100317.05
2018-08-04T04:51:15.847Z,100320.24
2018-08-04T04:53:44.399Z,100325.91
2018-08-04T04:56:13.159Z,100330.45
2018-08-04T04:58:41.699Z,100331.87
2018-08-04T05:01:10.286Z,100329.86
2018-08-04T05:03:38.929Z,100328.72
2018-08-04T05:06:07.331Z,100325.98
2018-08-04T05:08:35.863Z,100322.55
2018-08-04T05:11:04.385Z,100323.88
2018-08-04T05:13:32.832Z,100323.00
2018-08-04T05:16:01.356Z,100326.97
2018-08-04T05:18:29.823Z,100335.95
2018-08-04T05:20:58.211Z,100339.67
2018-08-04T05:23:26.628Z,100338.02
2018-08-04T05:25:55.211Z,100329.03
2018-08-04T05:28:23.608Z,100337.43
2018-08-04T05:30:52.072Z,100342.71
2018-08-04T05:33:20.894Z,100334.71
2018-08-04T05:35:49.387Z,100337.23
2018-08-04T05:38:17.776Z,100342.52
2018-08-04T05:40:46.411Z,100345.59
2018-08-04T05:43:14.978Z,100339.08
2018-08-04T05:45:43.540Z,100336.49
2018-08-04T05:48:12.222Z,100343.66
2018-08-04T05:50:40.695Z,100338.65
2018-08-04T05:53:09.167Z,100341.80
2018-08-04T05:55:37.603Z,100340.78
2018-08-04T05:58:06.407Z,100344.09
2018-08-04T06:00:34.855Z,100342.73
2018-08-04T06:03:03.480Z,100340.80
2018-08-04T06:05:31.911Z,100345.78
2018-08-04T06:08:00.315Z,100346.34
2018-08-04T06:10:28.909Z,100348.55
2018-08-04T06:12:57.419Z,100348.87
2018-08-04T06:15:25.963Z,100360.34
2018-08-04T06:17:54.559Z,100366.05
2018-08-04T06:20:23.103Z,100363.53
2018-08-04T06:22:51.715Z,100360.60
2018-08-04T06:25:20.523Z,100348.70
2018-08-04T06:27:48.987Z,100353.73
2018-08-04T06:30:17.479Z,100358.16
2018-08-04T06:32:45.907Z,100351.36
2018-08-04T06:35:14.267Z,100355.37
2018-08-04T06:37:42.679Z,100358.28
2018-08-04T06:40:11.308Z,100360.44
2018-08-04T06:42:39.743Z,100362.87
2018-08-04T06:45:08.267Z,100360.99
2018-08-04T06:47:36.788Z,100360.53
2018-08-04T06:50:05.584Z,100358.56
2018-08-04T06:52:34.111Z,100350.66
2018-08-04T06:55:02.685Z,100350.45
2018-08-04T06:57:31.087Z,100348.78
2018-08-04T06:59:59.499Z,100349.18
2018-08-04T07:02:28.192Z,100351.16
2018-08-04T07:04:56.691Z,100357.47
2018-08-04T07:07:25.151Z,100356.09
2018-08-04T07:09:53.595Z,100356.43
2018-08-04T07:12:22.095Z,100350.13
2018-08-04T07:14:50.560Z,100357.66
2018-08-04T07:17:19.450Z,100351.50
2018-08-04T07:19:47.903Z,100356.44
2018-08-04T07:22:16.477Z,100357.56
2018-08-04T07:24:45.335Z,100357.44
2018-08-04T07:27:13.728Z,100357.09
2018-08-04T07:29:42.139Z,100350.16
2018-08-04T07:32:10.731Z,100344.34
2018-08-04T07:34:39.137Z,100344.68
2018-08-04T07:37:07.882Z,100347.04
2018-08-04T07:39:36.354Z,100348.63
2018-08-04T07:42:04.843Z,100348.71
2018-08-04T07:44:33.301Z,100345.11
2018-08-04T07:47:02.089Z,100346.67
2018-08-04T07:49:30.495Z,100348.23
2018-08-04T07:51:58.919Z,100348.92
2018-08-04T07:54:27.406Z,100344.80
2018-08-04T07:56:55.815Z,100338.29
2018-08-04T07:59:24.185Z,100336.88
2018-08-04T08:01:53.150Z,100342.48
2018-08-04T08:04:21.588Z,100332.67
2018-08-04T08:06:50.072Z,100339.27
2018-08-04T08:09:18.731Z,100332.64
2018-08-04T08:11:47.219Z,100331.25
2018-08-04T08:14:15.776Z,100331.04
2018-08-04T08:16:44.432Z,100323.19
2018-08-04T08:19:13.834Z,100326.06
2018-08-04T08:21:42.227Z,100329.09
2018-08-04T08:24:10.951Z,100326.72
2018-08-04T08:26:39.432Z,100330.47
2018-08-04T08:29:07.983Z,100327.16
2018-08-04T08:31:36.552Z,100324.30
2018-08-04T08:34:05.039Z,100329.50
2018-08-04T08:36:33.503Z,100327.58
2018-08-04T08:39:01.972Z,100316.62
2018-08-04T08:41:30.436Z,100323.70
2018-08-04T08:43:58.920Z,100323.84
2018-08-04T08:46:27.340Z,100327.39
2018-08-04T08:48:55.742Z,100320.47
2018-08-04T08:51:24.143Z,100323.33
2018-08-04T08:53:52.634Z,100329.48
2018-08-04T08:56:20.931Z,100324.22
2018-08-04T08:58:49.339Z,100321.80
2018-08-04T09:01:18.057Z,100320.97
2018-08-04T09:03:46.455Z,100323.15
2018-08-04T09:06:15.132Z,100317.74
2018-08-04T09:08:44.235Z,100317.74
2018-08-04T09:11:12.698Z,100318.73
2018-08-04T09:13:41.163Z,100323.96
2018-08-04T09:16:09.719Z,100314.47
2018-08-04T09:18:38.215Z,100313.84
2018-08-04T09:21:06.622Z,100312.69
2018-08-04T09:23:35.064Z,100308.95
2018-08-04T09:26:03.552Z,100309.09
2018-08-04T09:28:32.068Z,100309.23
2018-08-04T09:31:00.556Z,100313.33
2018-08-04T09:33:29.035Z,100309.56
2018-08-04T09:35:57.491Z,100299.89
2018-08-04T09:38:25.911Z,100304.03
2018-08-04T09:40:54.323Z,100307.41
2018-08-04T09:43:22.708Z,100299.28
2018-08-04T09:45:51.359Z,100307.25
2018-08-04T09:48:19.718Z,100299.95
2018-08-04T09:50:48.084Z,100302.28
2018-08-04T09:53:16.596Z,100304.23
2018-08-04T09:55:45.087Z,100309.41
2018-08-04T09:58:13.506Z,100310.79
2018-08-04T10:00:47.230Z,100307.09
2018-08-04T10:03:15.595Z,100307.38
2018-08-04T10:05:44.023Z,100308.74
2018-08-04T10:08:12.690Z,100310.61
2018-08-04T10:10:41.152Z,100317.42
2018-08-04T10:13:09.619Z,100309.95
2018-08-04T10:15:38.195Z,100310.68
2018-08-04T10:18:06.624Z,100309.90
2018-08-04T10:20:35.039Z,100308.16
2018-08-04T10:23:03.612Z,100303.67
2018-08-04T10:25:32.091Z,100300.66
2018-08-04T10:28:00.552Z,100300.15
2018-08-04T10:30:29.027Z,100300.28
2018-08-04T10:32:57.484Z,100305.21
2018-08-04T10:35:25.939Z,100304.02
2018-08-04T10:37:54.379Z,100306.34
2018-08-04T10:40:22.991Z,100302.45
2018-08-04T10:42:51.443Z,100301.31
2018-08-04T10:45:19.879Z,100303.56
2018-08-04T10:47:48.251Z,100295.34
2018-08-04T10:50:16.732Z,100288.20
2018-08-04T10:52:45.223Z,100296.14
2018-08-04T10:55:13.739Z,100295.34
2018-08-04T10:57:42.219Z,100299.31
2018-08-04T11:00:11.271Z,100297.84
2018-08-04T11:02:39.688Z,100291.09
2018-08-04T11:05:08.534Z,100292.16
2018-08-04T11:07:37.171Z,100295.99
2018-08-04T11:10:06.083Z,100290.34
2018-08-04T11:12:34.717Z,100297.48
2018-08-04T11:15:03.283Z,100291.23
2018-08-04T11:17:31.699Z,100295.17
2018-08-04T11:20:00.179Z,100295.56
2018-08-04T11:22:28.597Z,100294.48
2018-08-04T11:24:57.069Z,100289.79
2018-08-04T11:27:25.703Z,100298.33
2018-08-04T11:29:54.282Z,100292.20
2018-08-04T11:32:22.899Z,100291.17
2018-08-04T11:34:51.303Z,100285.55
2018-08-04T11:37:19.791Z,100281.67
2018-08-04T11:39:48.298Z,100282.48
2018-08-04T11:42:17.034Z,100284.35
2018-08-04T11:44:45.682Z,100277.20
2018-08-04T11:47:14.136Z,100278.81
2018-08-04T11:49:42.707Z,100271.32
2018-08-04T11:52:11.262Z,100276.09
2018-08-04T11:54:39.691Z,100273.12
2018-08-04T11:57:08.105Z,100281.80
2018-08-04T11:59:36.788Z,100275.14
2018-08-04T12:02:05.347Z,100278.59
2018-08-04T12:04:33.778Z,100267.33
2018-08-04T12:07:02.339Z,100272.30
2018-08-04T12:09:30.779Z,100273.83
2018-08-04T12:11:59.183Z,100275.75
2018-08-04T12:14:27.891Z,100269.05
2018-08-04T12:16:56.391Z,100270.00
2018-08-04T12:19:24.838Z,100275.94
2018-08-04T12:21:53.527Z,100263.53
2018-08-04T12:24:22.073Z,100273.12
2018-08-04T12:26:50.524Z,100268.06
2018-08-04T12:29:18.995Z,100273.05
2018-08-04T12:31:47.387Z,100269.19
2018-08-04T12:34:15.811Z,100257.34
2018-08-04T12:36:44.219Z,100269.21
2018-08-04T12:39:12.819Z,100261.75
2018-08-04T12:41:41.325Z,100263.61
2018-08-04T12:44:10.496Z,100254.19
2018-08-04T12:46:39.466Z,100258.59
2018-08-04T12:49:08.458Z,100252.47
2018-08-04T12:51:36.956Z,100251.92
2018-08-04T12:54:05.411Z,100244.34
2018-08-04T12:56:33.775Z,100249.66
2018-08-04T12:59:02.476Z,100248.03
2018-08-04T13:01:30.892Z,100238.62
2018-08-04T13:03:59.389Z,100238.35
2018-08-04T13:06:27.888Z,100232.50
2018-08-04T13:08:56.434Z,100227.84
2018-08-04T13:11:24.871Z,100222.14
2018-08-04T13:13:53.475Z,100220.27
2018-08-04T13:16:22.097Z,100225.35
2018-08-04T13:18:50.498Z,100219.73
2018-08-04T13:21:18.987Z,100210.34
2018-08-04T13:23:47.393Z,100215.27
2018-08-04T13:26:15.817Z,100213.09
2018-08-04T13:28:44.725Z,100212.59
2018-08-04T13:31:13.155Z,100218.86
2018-08-04T13:33:41.546Z,100207.33
2018-08-04T13:36:10.072Z,100205.58
2018-08-04T13:38:38.467Z,100196.80
2018-08-04T13:41:06.884Z,100194.16
2018-08-04T13:43:35.468Z,100197.00
2018-08-04T13:46:03.891Z,100189.34
2018-08-04T13:48:32.417Z,100190.80
2018-08-04T13:51:00.892Z,100192.01
2018-08-04T13:53:29.350Z,100187.03
2018-08-04T13:55:57.743Z,100193.78
2018-08-04T13:58:26.427Z,100190.60
2018-08-04T14:00:54.859Z,100194.56
2018-08-04T14:03:23.695Z,100192.40
2018-08-04T14:05:52.482Z,100190.72
2018-08-04T14:08:20.959Z,100188.59
2018-08-04T14:10:49.431Z,100188.70
2018-08-04T14:13:18.201Z,100195.08
2018-08-04T14:15:46.635Z,100192.65
2018-08-04T14:18:15.108Z,100191.30
2018-08-04T14:20:43.571Z,100189.89
2018-08-04T14:23:11.991Z,100196.81
2018-08-04T14:25:40.390Z,100186.27
2018-08-04T14:28:08.819Z,100195.73
2018-08-04T14:30:37.275Z,100190.53
2018-08-04T14:33:05.684Z,100192.20
2018-08-04T14:35:34.451Z,100188.95
2018-08-04T14:38:02.902Z,100183.91
2018-08-04T14:40:31.459Z,100187.84
2018-08-04T14:43:00.051Z,100185.73
2018-08-04T14:45:28.716Z,100184.03
2018-08-04T14:47:57.191Z,100182.19
2018-08-04T14:50:25.687Z,100185.49
2018-08-04T14:52:54.386Z,100183.60
2018-08-04T14:55:23.067Z,100176.63
2018-08-04T14:57:51.591Z,100173.25
2018-08-04T15:00:19.960Z,100172.11
2018-08-04T15:02:48.352Z,100169.47
2018-08-04T15:05:16.998Z,100163.02
2018-08-04T15:07:45.475Z,100165.80
2018-08-04T15:10:13.993Z,100172.73
2018-08-04T15:12:42.579Z,100171.38
2018-08-04T15:15:11.588Z,100164.38
2018-08-04T15:17:40.183Z,100161.88
2018-08-04T15:20:09.061Z,100155.70
2018-08-04T15:22:37.651Z,100155.79
2018-08-04T15:25:06.215Z,100149.72
2018-08-04T15:27:35.195Z,100156.75
2018-08-04T15:30:03.662Z,100157.17
2018-08-04T15:32:32.339Z,100157.41
2018-08-04T15:35:01.048Z,100156.64
2018-08-04T15:37:29.852Z,100156.11
2018-08-04T15:39:58.305Z,100154.84
2018-08-04T15:42:26.827Z,100155.47
2018-08-04T15:44:55.220Z,100157.17
2018-08-04T15:47:23.615Z,100155.70
2018-08-04T15:49:52.447Z,100150.16
2018-08-04T15:52:20.867Z,100153.83
2018-08-04T15:54:49.282Z,100148.13
2018-08-04T15:57:17.795Z,100151.66
2018-08-04T15:59:46.215Z,100154.33
2018-08-04T16:02:14.611Z,100154.00
2018-08-04T16:04:43.220Z,100148.55
2018-08-04T16:07:11.624Z,100147.17
2018-08-04T16:09:40.023Z,100146.32
2018-08-04T16:12:08.559Z,100151.22
2018-08-04T16:14:37.355Z,100150.17
2018-08-04T16:17:05.811Z,100155.98
2018-08-04T16:19:34.678Z,100147.78
2018-08-04T16:22:03.107Z,100147.42
2018-08-04T16:24:31.671Z,100144.20
2018-08-04T16:27:00.243Z,100143.17
2018-08-04T16:29:28.648Z,100146.86
2018-08-04T16:31:57.074Z,100153.56
2018-08-04T16:34:25.738Z,100146.12
2018-08-04T16:36:54.148Z,100147.86
2018-08-04T16:39:22.587Z,100149.34
2018-08-04T16:41:51.139Z,100152.27
2018-08-04T16:44:19.530Z,100156.79
2018-08-04T16:46:47.953Z,100155.73
2018-08-04T16:49:16.469Z,100157.26
2018-08-04T16:51:44.892Z,100153.54
2018-08-04T16:54:13.339Z,100160.54
2018-08-04T16:56:41.887Z,100155.89
2018-08-04T16:59:10.353Z,100152.78
2018-08-04T17:01:39.047Z,100163.25
2018-08-04T17:04:07.475Z,100160.98
2018-08-04T17:06:36.000Z,100168.33
2018-08-04T17:09:06.799Z,100167.58
2018-08-04T17:11:35.246Z,100170.77
2018-08-04T17:14:03.653Z,100166.47
2018-08-04T17:16:32.113Z,100169.91
2018-08-04T17:19:00.544Z,100171.66
2018-08-04T17:21:29.243Z,100175.30
2018-08-04T17:23:57.679Z,100178.48
2018-08-04T17:26:26.112Z,100182.47
2018-08-04T17:28:54.583Z,100184.83
2018-08-04T17:31:23.071Z,100179.02
2018-08-04T17:33:51.595Z,100189.41
2018-08-04T17:36:19.998Z,100187.82
2018-08-04T17:38:48.668Z,100189.83
2018-08-04T17:41:17.077Z,100202.09
2018-08-04T17:43:45.466Z,100193.84
2018-08-04T17:46:13.939Z,100192.09
2018-08-04T17:48:42.346Z,100197.83
2018-08-04T17:51:10.735Z,100198.47
2018-08-04T17:53:39.300Z,100197.55
2018-08-04T17:56:07.719Z,100203.23
2018-08-04T17:58:36.207Z,100202.84
2018-08-04T18:01:04.663Z,100209.34
2018-08-04T18:03:33.095Z,100208.42
2018-08-04T18:06:01.496Z,100215.31
2018-08-04T18:08:30.142Z,100214.33
2018-08-04T18:10:58.515Z,100210.59
2018-08-04T18:13:26.982Z,100203.53
2018-08-04T18:15:55.639Z,100214.67
2018-08-04T18:18:24.191Z,100212.86
2018-08-04T18:20:52.758Z,100216.94
2018-08-04T18:23:21.384Z,100213.72
2018-08-04T18:25:49.834Z,100222.72
2018-08-04T18:28:18.228Z,100222.14
2018-08-04T18:30:46.814Z,100225.70
2018-08-04T18:33:15.219Z,100229.31
2018-08-04T18:35:43.710Z,100224.19
2018-08-04T18:38:12.268Z,100226.93
2018-08-04T18:40:40.739Z,100227.88
2018-08-04T18:43:09.150Z,100231.95
2018-08-04T18:45:37.980Z,100236.42
2018-08-04T18:48:06.429Z,100236.64
2018-08-04T18:50:34.835Z,100235.27
2018-08-04T18:53:03.366Z,100239.28
2018-08-04T18:55:31.708Z,100242.50
2018-08-04T18:58:00.201Z,100245.70
2018-08-04T19:00:28.680Z,100253.75
2018-08-04T19:02:57.162Z,100254.47
2018-08-04T19:05:25.527Z,100257.18
2018-08-04T19:07:54.194Z,100258.39
2018-08-04T19:10:22.687Z,100249.85
2018-08-04T19:12:51.139Z,100254.48
2018-08-04T19:15:19.815Z,100257.94
2018-08-04T19:17:48.194Z,100262.92
2018-08-04T19:20:16.659Z,100265.33
2018-08-04T19:22:45.283Z,100257.87
2018-08-04T19:25:13.638Z,100263.29
2018-08-04T19:27:42.043Z,100258.28
2018-08-04T19:30:10.523Z,100268.45
2018-08-04T19:32:38.990Z,100265.39
2018-08-04T19:35:07.436Z,100271.55
2018-08-04T19:37:36.043Z,100271.72
2018-08-04T19:40:04.884Z,100275.16
2018-08-04T19:42:33.387Z,100276.52
2018-08-04T19:45:01.780Z,100278.92
2018-08-04T19:47:30.181Z,100278.25
2018-08-04T19:49:58.683Z,100281.48
2018-08-04T19:52:27.159Z,100286.12
2018-08-04T19:54:55.610Z,100287.67
2018-08-04T19:57:24.003Z,100291.75
2018-08-04T19:59:52.598Z,100291.13
2018-08-04T20:02:21.047Z,100295.21
2018-08-04T20:04:49.458Z,100286.64
2018-08-04T20:07:18.094Z,100298.31
2018-08-04T20:09:46.539Z,100304.27
2018-08-04T20:12:15.023Z,100304.47
2018-08-04T20:14:43.734Z,100307.98
2018-08-04T20:17:12.207Z,100309.05
2018-08-04T20:19:40.691Z,100304.38
2018-08-04T20:22:14.089Z,100311.09
2018-08-04T20:24:42.638Z,100312.64
2018-08-04T20:27:11.087Z,100310.92
2018-08-04T20:29:39.866Z,100314.97
2018-08-04T20:32:08.687Z,100316.92
2018-08-04T20:34:37.055Z,100314.48
2018-08-04T20:37:05.527Z,100323.05
2018-08-04T20:39:34.060Z,100318.05
2018-08-04T20:42:02.595Z,100314.27
2018-08-04T20:44:31.343Z,100315.17
2018-08-04T20:46:59.826Z,100311.71
2018-08-04T20:49:28.335Z,100314.79
2018-08-04T20:51:56.874Z,100323.30
2018-08-04T20:54:25.244Z,100322.11
2018-08-04T20:56:53.767Z,100317.31
2018-08-04T20:59:22.363Z,100311.66
2018-08-04T21:02:00.231Z,100315.42
2018-08-04T21:04:29.923Z,100310.70
2018-08-04T21:06:58.524Z,100315.00
2018-08-04T21:09:26.981Z,100318.37
2018-08-04T21:11:56.543Z,100318.72
2018-08-04T21:14:26.152Z,100323.17
2018-08-04T21:16:55.403Z,100322.15
2018-08-04T21:19:24.635Z,100325.58
2018-08-04T21:21:53.207Z,100332.91
2018-08-04T21:24:22.867Z,100332.27
2018-08-04T21:26:52.692Z,100332.06
2018-08-04T21:29:21.698Z,100339.73
2018-08-04T21:31:50.160Z,100337.12
2018-08-04T21:34:18.822Z,100341.75
2018-08-04T21:36:47.383Z,100337.86
2018-08-04T21:39:17.219Z,100347.17
2018-08-04T21:41:46.714Z,100351.30
2018-08-04T21:44:15.688Z,100354.06
2018-08-04T21:46:50.156Z,100353.59
2018-08-04T21:49:19.041Z,100353.20
2018-08-04T21:51:48.597Z,100359.80
2018-08-04T21:54:19.921Z,100361.95
2018-08-04T21:56:46.779Z,100364.93
2018-08-04T21:59:15.282Z,100366.00
2018-08-04T22:01:49.221Z,100367.75
2018-08-04T22:04:17.651Z,100363.33
2018-08-04T22:07:59.127Z,100365.84
2018-08-04T22:10:27.640Z,100370.52
2018-08-04T22:12:56.305Z,100374.72
2018-08-04T22:15:24.797Z,100374.80
2018-08-04T22:17:53.267Z,100373.55
2018-08-04T22:20:22.511Z,100373.11
2018-08-04T22:22:51.111Z,100373.67
2018-08-04T22:25:20.931Z,100376.31
2018-08-04T22:27:49.400Z,100377.34
2018-08-04T22:30:19.153Z,100377.08
2018-08-04T22:32:48.163Z,100379.63
2018-08-04T22:35:16.634Z,100378.57
2018-08-04T22:37:45.187Z,100382.95
2018-08-04T22:40:14.867Z,100387.41
2018-08-04T22:42:43.667Z,100386.94
2018-08-04T22:46:22.021Z,100386.75
2018-08-04T22:48:51.842Z,100390.19
2018-08-04T22:51:23.346Z,100395.58
2018-08-04T22:53:51.832Z,100391.25
2018-08-04T22:56:20.246Z,100391.41
2018-08-04T22:58:48.763Z,100398.97
2018-08-04T23:01:17.276Z,100396.44
2018-08-04T23:06:14.451Z,100386.95
2018-08-04T23:08:42.928Z,100397.04
2018-08-04T23:11:11.414Z,100404.94
2018-08-04T23:13:39.825Z,100406.42
2018-08-04T23:16:08.366Z,100406.95
2018-08-04T23:18:36.822Z,100405.66
2018-08-04T23:21:05.475Z,100407.95
2018-08-04T23:23:33.995Z,100401.82
2018-08-04T23:26:02.463Z,100404.28
2018-08-04T23:28:30.892Z,100404.47
2018-08-04T23:30:59.286Z,100412.91
2018-08-04T23:33:27.734Z,100413.52
2018-08-04T23:35:56.274Z,100422.32
2018-08-04T23:38:24.769Z,100421.50
2018-08-04T23:40:53.220Z,100422.78
2018-08-04T23:43:21.661Z,100425.41
2018-08-04T23:45:50.179Z,100418.19
2018-08-04T23:48:18.615Z,100414.72
2018-08-04T23:50:47.286Z,100417.39
2018-08-04T23:53:16.822Z,100419.48
2018-08-04T23:55:45.211Z,100417.14
2018-08-04T23:58:13.692Z,100409.64
